createdAt,value
2018-07-08T00:00:07.918Z,6.20
2018-07-08T00:02:36.115Z,5.90
2018-07-08T00:05:04.442Z,2.90
2018-07-08T00:07:32.576Z,5.87
2018-07-08T00:10:00.723Z,7.53
2018-07-08T00:12:28.841Z,7.73
2018-07-08T00:14:56.750Z,6.80
2018-07-08T00:17:24.914Z,13.57
2018-07-08T00:19:53.054Z,8.33
2018-07-08T00:22:21.197Z,4.00
2018-07-08T00:24:49.342Z,10.17
2018-07-08T00:27:17.535Z,6.57
2018-07-08T00:29:45.756Z,6.10
2018-07-08T00:32:13.877Z,5.93
2018-07-08T00:34:42.022Z,5.87
2018-07-08T00:37:10.901Z,8.83
2018-07-08T00:39:39.045Z,5.60
2018-07-08T00:42:07.188Z,5.67
2018-07-08T00:44:35.329Z,8.53
2018-07-08T00:47:03.485Z,5.73
2018-07-08T00:49:31.630Z,6.53
2018-07-08T00:51:59.762Z,7.23
2018-07-08T00:54:27.917Z,5.73
2018-07-08T00:56:56.056Z,4.70
2018-07-08T00:59:24.256Z,5.07
2018-07-08T01:01:52.390Z,8.17
2018-07-08T01:04:20.561Z,7.43
2018-07-08T01:06:48.698Z,4.87
2018-07-08T01:09:16.829Z,4.53
2018-07-08T01:11:45.082Z,7.10
2018-07-08T01:14:13.214Z,5.80
2018-07-08T01:16:41.551Z,3.97
2018-07-08T01:19:09.818Z,3.97
2018-07-08T01:21:37.966Z,4.73
2018-07-08T01:24:06.366Z,6.00
2018-07-08T01:26:35.271Z,8.43
2018-07-08T01:29:03.458Z,4.87
2018-07-08T01:31:31.637Z,5.60
2018-07-08T01:33:59.845Z,6.33
2018-07-08T01:36:27.965Z,3.40
2018-07-08T01:38:56.126Z,6.20
2018-07-08T01:41:24.307Z,7.60
2018-07-08T01:43:52.678Z,6.13
2018-07-08T01:46:20.882Z,4.20
2018-07-08T01:48:49.018Z,7.13
2018-07-08T01:51:17.174Z,5.23
2018-07-08T01:53:45.322Z,6.43
2018-07-08T01:56:13.566Z,6.37
2018-07-08T01:58:42.090Z,6.03
2018-07-08T02:01:10.285Z,5.60
2018-07-08T02:03:38.419Z,5.20
2018-07-08T02:06:06.607Z,6.53
2018-07-08T02:08:34.755Z,10.13
2018-07-08T02:11:03.057Z,4.60
2018-07-08T02:13:31.193Z,7.20
2018-07-08T02:15:59.327Z,4.40
2018-07-08T02:18:27.502Z,6.73
2018-07-08T02:20:55.658Z,7.33
2018-07-08T02:23:23.835Z,4.13
2018-07-08T02:25:52.016Z,3.23
2018-07-08T02:28:20.334Z,4.97
2018-07-08T02:30:48.606Z,4.93
2018-07-08T02:33:16.871Z,8.40
2018-07-08T02:35:45.357Z,8.17
2018-07-08T02:38:13.535Z,9.03
2018-07-08T02:40:41.892Z,4.73
2018-07-08T02:43:10.088Z,9.43
2018-07-08T02:45:38.293Z,5.30
2018-07-08T02:48:06.532Z,5.53
2018-07-08T02:50:34.826Z,5.80
2018-07-08T02:53:03.010Z,7.33
2018-07-08T02:55:31.211Z,5.73
2018-07-08T02:57:59.302Z,4.80
2018-07-08T03:00:27.450Z,8.33
2018-07-08T03:02:56.297Z,5.50
2018-07-08T03:05:24.474Z,5.93
2018-07-08T03:07:52.725Z,9.63
2018-07-08T03:10:20.870Z,7.60
2018-07-08T03:12:49.102Z,5.93
2018-07-08T03:15:17.442Z,6.53
2018-07-08T03:17:45.688Z,10.93
2018-07-08T03:20:13.818Z,5.30
2018-07-08T03:22:41.985Z,5.13
2018-07-08T03:25:10.186Z,8.50
2018-07-08T03:27:38.408Z,4.50
2018-07-08T03:30:06.566Z,5.53
2018-07-08T03:32:34.717Z,5.30
2018-07-08T03:35:02.878Z,8.67
2018-07-08T03:37:31.102Z,7.27
2018-07-08T03:39:59.253Z,4.33
2018-07-08T03:42:27.401Z,6.43
2018-07-08T03:44:55.566Z,10.27
2018-07-08T03:47:23.714Z,5.90
2018-07-08T03:49:51.894Z,5.23
2018-07-08T03:52:20.054Z,7.53
2018-07-08T03:54:48.202Z,5.30
2018-07-08T03:57:16.329Z,9.50
2018-07-08T03:59:44.478Z,6.70
2018-07-08T04:02:12.610Z,5.23
2018-07-08T04:04:40.747Z,6.57
2018-07-08T04:07:08.905Z,6.83
2018-07-08T04:09:37.201Z,7.90
2018-07-08T04:12:05.345Z,5.90
2018-07-08T04:14:33.485Z,4.93
2018-07-08T04:17:01.611Z,8.50
2018-07-08T04:19:29.763Z,5.63
2018-07-08T04:21:57.904Z,7.13
2018-07-08T04:24:26.046Z,7.93
2018-07-08T04:26:54.194Z,8.00
2018-07-08T04:29:22.385Z,9.00
2018-07-08T04:31:50.591Z,9.67
2018-07-08T04:34:18.789Z,8.57
2018-07-08T04:36:46.925Z,11.73
2018-07-08T04:39:15.057Z,7.07
2018-07-08T04:41:43.234Z,8.00
2018-07-08T04:44:11.361Z,8.77
2018-07-08T04:46:39.575Z,7.83
2018-07-08T04:49:07.719Z,9.87
2018-07-08T04:51:35.858Z,8.70
2018-07-08T04:54:04.015Z,10.47
2018-07-08T04:56:32.180Z,12.37
2018-07-08T04:59:00.321Z,9.77
2018-07-08T05:01:29.157Z,9.00
2018-07-08T05:03:57.286Z,8.90
2018-07-08T05:06:25.458Z,16.13
2018-07-08T05:08:53.603Z,10.87
2018-07-08T05:11:21.761Z,15.93
2018-07-08T05:13:50.112Z,9.83
2018-07-08T05:16:18.269Z,9.97
2018-07-08T05:18:46.417Z,10.87
2018-07-08T05:21:14.575Z,9.50
2018-07-08T05:23:42.790Z,11.33
2018-07-08T05:26:10.974Z,8.73
2018-07-08T05:28:39.151Z,11.37
2018-07-08T05:31:07.342Z,11.10
2018-07-08T05:33:35.554Z,9.73
2018-07-08T05:36:03.762Z,11.33
2018-07-08T05:38:31.913Z,11.13
2018-07-08T05:41:00.078Z,15.03
2018-07-08T05:43:28.281Z,9.87
2018-07-08T05:45:56.466Z,11.30
2018-07-08T05:48:24.728Z,14.70
2018-07-08T05:50:52.894Z,11.73
2018-07-08T05:53:21.049Z,11.63
2018-07-08T05:55:49.257Z,14.20
2018-07-08T05:58:17.421Z,14.37
2018-07-08T06:00:45.569Z,13.00
2018-07-08T06:03:13.862Z,11.57
2018-07-08T06:05:42.009Z,11.70
2018-07-08T06:08:10.178Z,13.60
2018-07-08T06:10:38.318Z,9.90
2018-07-08T06:13:06.497Z,11.80
2018-07-08T06:15:34.392Z,10.87
2018-07-08T06:18:02.562Z,12.33
2018-07-08T06:20:30.705Z,11.90
2018-07-08T06:22:58.857Z,16.50
2018-07-08T06:25:27.035Z,11.03
2018-07-08T06:27:55.203Z,11.40
2018-07-08T06:30:23.353Z,18.63
2018-07-08T06:32:51.621Z,11.10
2018-07-08T06:35:19.786Z,12.80
2018-07-08T06:37:48.074Z,9.97
2018-07-08T06:40:16.250Z,8.67
2018-07-08T06:42:44.402Z,8.53
2018-07-08T06:45:12.305Z,9.20
2018-07-08T06:47:40.538Z,11.57
2018-07-08T06:50:08.739Z,12.33
2018-07-08T06:52:36.913Z,7.70
2018-07-08T06:55:05.065Z,10.33
2018-07-08T06:57:33.282Z,11.97
2018-07-08T07:00:01.185Z,8.93
2018-07-08T07:02:29.311Z,7.90
2018-07-08T07:04:57.447Z,8.07
2018-07-08T07:07:25.623Z,5.97
2018-07-08T07:09:53.778Z,9.77
2018-07-08T07:12:21.914Z,10.60
2018-07-08T07:14:50.065Z,12.63
2018-07-08T07:17:18.260Z,8.90
2018-07-08T07:19:46.394Z,7.73
2018-07-08T07:22:14.526Z,15.83
2018-07-08T07:24:42.666Z,9.33
2018-07-08T07:27:10.804Z,7.87
2018-07-08T07:29:38.978Z,7.07
2018-07-08T07:32:07.230Z,5.60
2018-07-08T07:34:35.378Z,7.63
2018-07-08T07:37:03.596Z,5.73
2018-07-08T07:39:31.681Z,9.43
2018-07-08T07:41:59.628Z,6.20
2018-07-08T07:44:27.806Z,5.63
2018-07-08T07:46:55.930Z,6.57
2018-07-08T07:49:24.074Z,7.33
2018-07-08T07:51:52.467Z,11.07
2018-07-08T07:54:20.630Z,8.03
2018-07-08T07:56:48.769Z,6.07
2018-07-08T07:59:16.935Z,8.40
2018-07-08T08:01:45.098Z,7.77
2018-07-08T08:04:13.281Z,6.50
2018-07-08T08:06:41.442Z,3.83
2018-07-08T08:09:09.598Z,7.90
2018-07-08T08:11:37.793Z,5.80
2018-07-08T08:14:06.565Z,4.63
2018-07-08T08:16:34.709Z,7.30
2018-07-08T08:19:03.544Z,4.47
2018-07-08T08:21:31.694Z,4.20
2018-07-08T08:23:59.834Z,38.13
2018-07-08T08:26:29.384Z,4.40
2018-07-08T08:28:57.519Z,9.47
2018-07-08T08:31:25.668Z,5.47
2018-07-08T08:35:02.441Z,3.13
2018-07-08T08:37:31.885Z,2.93
2018-07-08T08:40:00.084Z,7.77
2018-07-08T08:42:28.258Z,7.77
2018-07-08T08:44:57.145Z,2.87
2018-07-08T08:47:25.753Z,5.20
2018-07-08T08:49:54.258Z,5.90
2018-07-08T08:52:22.423Z,3.43
2018-07-08T08:54:50.773Z,5.80
2018-07-08T08:57:18.926Z,3.80
2018-07-08T08:59:47.237Z,6.47
2018-07-08T09:02:15.377Z,6.43
2018-07-08T09:04:44.098Z,4.97
2018-07-08T09:07:13.618Z,5.17
2018-07-08T09:09:41.778Z,6.50
2018-07-08T09:12:10.586Z,3.73
2018-07-08T09:14:38.954Z,5.67
2018-07-08T09:17:07.153Z,5.10
2018-07-08T09:19:35.277Z,3.07
2018-07-08T09:22:03.467Z,3.50
2018-07-08T09:24:31.606Z,3.10
2018-07-08T09:26:59.747Z,3.27
2018-07-08T09:29:27.884Z,3.27
2018-07-08T09:31:56.399Z,4.20
2018-07-08T09:34:24.738Z,2.77
2018-07-08T09:36:53.037Z,3.77
2018-07-08T09:39:21.237Z,5.33
2018-07-08T09:41:51.538Z,2.50
2018-07-08T09:44:19.899Z,2.07
2018-07-08T09:46:48.858Z,2.10
2018-07-08T09:49:17.182Z,3.77
2018-07-08T09:51:45.830Z,3.43
2018-07-08T09:54:14.146Z,3.17
2018-07-08T09:56:42.302Z,3.57
2018-07-08T09:59:10.450Z,4.53
2018-07-08T10:01:40.489Z,2.77
2018-07-08T10:04:10.232Z,1.83
2018-07-08T10:06:38.382Z,2.40
2018-07-08T10:09:08.424Z,4.17
2018-07-08T10:11:36.770Z,2.47
2018-07-08T10:14:05.241Z,2.80
2018-07-08T10:16:33.378Z,1.97
2018-07-08T10:19:01.574Z,4.93
2018-07-08T10:21:31.675Z,2.67
2018-07-08T10:23:59.905Z,3.03
2018-07-08T10:26:28.070Z,1.80
2018-07-08T10:28:56.328Z,3.90
2018-07-08T10:32:02.351Z,2.70
2018-07-08T10:34:30.897Z,2.70
2018-07-08T10:36:59.024Z,2.30
2018-07-08T10:39:27.161Z,2.03
2018-07-08T10:41:55.314Z,1.90
2018-07-08T10:44:23.470Z,2.70
2018-07-08T10:46:51.643Z,5.43
2018-07-08T10:49:19.794Z,2.97
2018-07-08T10:51:48.118Z,2.30
2018-07-08T10:54:16.289Z,3.60
2018-07-08T10:56:44.461Z,2.07
2018-07-08T10:59:12.602Z,1.60
2018-07-08T11:01:40.845Z,2.33
2018-07-08T11:04:09.045Z,5.37
2018-07-08T11:06:37.187Z,2.33
2018-07-08T11:09:06.664Z,3.63
2018-07-08T11:11:34.807Z,2.70
2018-07-08T11:14:03.090Z,3.53
2018-07-08T11:16:31.245Z,2.70
2018-07-08T11:18:59.386Z,2.67
2018-07-08T11:21:27.518Z,2.20
2018-07-08T11:23:55.661Z,1.70
2018-07-08T11:26:23.794Z,3.87
2018-07-08T11:28:52.162Z,2.10
2018-07-08T11:31:20.302Z,3.10
2018-07-08T11:33:48.445Z,4.37
2018-07-08T11:36:16.581Z,5.43
2018-07-08T11:38:44.709Z,2.07
2018-07-08T11:41:12.849Z,2.33
2018-07-08T11:43:41.013Z,3.50
2018-07-08T11:46:09.231Z,2.97
2018-07-08T11:48:37.362Z,2.97
2018-07-08T11:51:06.318Z,2.33
2018-07-08T11:53:34.464Z,2.33
2018-07-08T11:56:02.633Z,2.70
2018-07-08T11:58:30.761Z,2.20
2018-07-08T12:00:58.907Z,3.60
2018-07-08T12:03:27.031Z,3.17
2018-07-08T12:05:55.202Z,3.20
2018-07-08T12:08:23.445Z,4.70
2018-07-08T12:10:51.579Z,3.23
2018-07-08T12:13:19.706Z,6.80
2018-07-08T12:15:47.882Z,2.47
2018-07-08T12:18:16.041Z,4.90
2018-07-08T12:20:44.183Z,3.63
2018-07-08T12:23:12.322Z,2.80
2018-07-08T12:25:40.485Z,3.13
2018-07-08T12:28:08.629Z,2.80
2018-07-08T12:30:36.569Z,3.43
2018-07-08T12:33:04.706Z,1.90
2018-07-08T12:35:32.874Z,2.37
2018-07-08T12:38:01.006Z,3.20
2018-07-08T12:40:29.150Z,3.93
2018-07-08T12:42:57.277Z,4.30
2018-07-08T12:45:25.501Z,2.10
2018-07-08T12:47:53.630Z,3.40
2018-07-08T12:50:21.793Z,2.90
2018-07-08T12:52:49.941Z,3.67
2018-07-08T12:55:18.082Z,2.90
2018-07-08T12:57:46.233Z,3.23
2018-07-08T13:00:14.375Z,2.07
2018-07-08T13:02:42.514Z,3.87
2018-07-08T13:05:10.649Z,2.80
2018-07-08T13:07:38.810Z,2.27
2018-07-08T13:10:06.942Z,6.60
2018-07-08T13:12:35.083Z,2.67
2018-07-08T13:15:03.229Z,3.20
2018-07-08T13:17:31.378Z,4.40
2018-07-08T13:19:59.525Z,4.40
2018-07-08T13:22:27.655Z,2.63
2018-07-08T13:24:55.954Z,1.90
2018-07-08T13:27:24.101Z,3.27
2018-07-08T13:29:52.257Z,3.83
2018-07-08T13:32:20.442Z,7.57
2018-07-08T13:34:48.547Z,4.80
2018-07-08T13:37:16.709Z,2.40
2018-07-08T13:39:44.845Z,3.57
2018-07-08T13:42:12.998Z,5.40
2018-07-08T13:44:41.127Z,3.70
2018-07-08T13:47:09.049Z,4.80
2018-07-08T13:49:37.181Z,2.10
2018-07-08T13:52:05.318Z,2.10
2018-07-08T13:54:33.473Z,2.90
2018-07-08T13:57:01.836Z,2.40
2018-07-08T13:59:29.975Z,2.40
2018-07-08T14:01:58.134Z,3.73
2018-07-08T14:04:26.275Z,2.50
2018-07-08T14:06:55.298Z,3.37
2018-07-08T14:09:23.475Z,3.33
2018-07-08T14:11:51.633Z,3.43
2018-07-08T14:14:19.786Z,2.17
2018-07-08T14:16:47.949Z,2.53
2018-07-08T14:19:16.118Z,3.30
2018-07-08T14:21:44.282Z,3.17
2018-07-08T14:24:12.474Z,4.00
2018-07-08T14:26:40.637Z,2.10
2018-07-08T14:29:08.846Z,2.50
2018-07-08T14:31:37.010Z,2.90
2018-07-08T14:34:05.221Z,1.77
2018-07-08T14:36:33.361Z,2.97
2018-07-08T14:39:01.534Z,2.13
2018-07-08T14:41:29.699Z,2.30
2018-07-08T14:43:57.849Z,3.50
2018-07-08T14:46:26.001Z,3.70
2018-07-08T14:48:54.144Z,2.10
2018-07-08T14:51:22.323Z,3.53
2018-07-08T14:53:50.481Z,3.43
2018-07-08T14:56:18.622Z,1.60
2018-07-08T14:58:46.786Z,3.43
2018-07-08T15:01:14.994Z,2.80
2018-07-08T15:03:43.146Z,3.43
2018-07-08T15:06:11.291Z,2.70
2018-07-08T15:08:39.504Z,1.70
2018-07-08T15:11:07.669Z,1.90
2018-07-08T15:13:35.829Z,3.47
2018-07-08T15:16:04.012Z,3.03
2018-07-08T15:18:32.185Z,2.43
2018-07-08T15:21:00.443Z,5.50
2018-07-08T15:23:29.174Z,5.27
2018-07-08T15:25:57.318Z,2.40
2018-07-08T15:28:25.471Z,1.40
2018-07-08T15:30:53.710Z,1.80
2018-07-08T15:33:21.862Z,2.40
2018-07-08T15:35:50.009Z,3.37
2018-07-08T15:38:18.154Z,1.77
2018-07-08T15:40:46.322Z,2.13
2018-07-08T15:43:14.517Z,5.13
2018-07-08T15:45:42.717Z,2.20
2018-07-08T15:48:10.885Z,2.97
2018-07-08T15:50:39.029Z,6.33
2018-07-08T15:53:07.330Z,1.83
2018-07-08T15:55:35.475Z,2.57
2018-07-08T15:58:03.626Z,8.03
2018-07-08T16:00:31.850Z,2.67
2018-07-08T16:03:00.178Z,4.10
2018-07-08T16:05:28.342Z,1.50
2018-07-08T16:07:56.536Z,2.83
2018-07-08T16:10:24.762Z,1.90
2018-07-08T16:12:53.153Z,3.07
2018-07-08T16:15:21.564Z,2.13
2018-07-08T16:17:49.722Z,1.93
2018-07-08T16:20:17.957Z,2.63
2018-07-08T16:22:46.127Z,1.63
2018-07-08T16:25:14.282Z,2.87
2018-07-08T16:27:42.442Z,1.63
2018-07-08T16:30:10.595Z,1.40
2018-07-08T16:32:38.846Z,2.62
2018-07-08T16:35:41.136Z,2.70
2018-07-08T16:40:56.122Z,4.07
2018-07-08T16:43:24.664Z,2.50
2018-07-08T16:45:52.855Z,1.57
2018-07-08T16:48:21.530Z,2.70
2018-07-08T16:50:49.733Z,2.23
2018-07-08T16:53:17.947Z,2.40
2018-07-08T16:55:46.177Z,2.47
2018-07-08T16:58:14.104Z,2.63
2018-07-08T17:00:42.322Z,2.23
2018-07-08T17:03:10.522Z,3.70
2018-07-08T17:05:38.773Z,1.40
2018-07-08T17:08:06.992Z,2.97
2018-07-08T17:10:35.182Z,1.73
2018-07-08T17:13:04.224Z,1.50
2018-07-08T17:15:32.514Z,2.70
2018-07-08T17:18:00.637Z,4.10
2018-07-08T17:20:28.826Z,2.40
2018-07-08T17:22:57.025Z,2.23
2018-07-08T17:25:25.254Z,2.13
2018-07-08T17:27:53.805Z,3.10
2018-07-08T17:30:22.026Z,2.60
2018-07-08T17:32:50.891Z,2.90
2018-07-08T17:35:19.080Z,2.60
2018-07-08T17:37:47.326Z,3.95
2018-07-08T17:40:15.538Z,2.10
2018-07-08T17:42:43.746Z,2.70
2018-07-08T17:45:11.937Z,2.43
2018-07-08T17:47:40.152Z,2.20
2018-07-08T17:50:08.332Z,3.67
2018-07-08T17:52:36.529Z,4.70
2018-07-08T17:55:04.875Z,2.10
2018-07-08T17:57:33.180Z,1.50
2018-07-08T18:00:01.395Z,1.50
2018-07-08T18:02:29.602Z,1.57
2018-07-08T18:04:57.843Z,1.80
2018-07-08T18:07:26.035Z,3.13
2018-07-08T18:09:54.302Z,1.50
2018-07-08T18:12:22.592Z,1.70
2018-07-08T18:14:50.803Z,1.63
2018-07-08T18:17:19.853Z,6.57
2018-07-08T18:19:48.019Z,1.50
2018-07-08T18:22:16.334Z,1.57
2018-07-08T18:24:44.562Z,7.53
2018-07-08T18:27:12.774Z,4.20
2018-07-08T18:29:40.969Z,2.60
2018-07-08T18:32:09.194Z,2.20
2018-07-08T18:34:37.483Z,1.50
2018-07-08T18:37:05.817Z,3.33
2018-07-08T18:39:33.993Z,2.60
2018-07-08T18:42:02.218Z,3.37
2018-07-08T18:44:30.403Z,2.80
2018-07-08T18:46:58.638Z,2.53
2018-07-08T18:49:26.826Z,1.60
2018-07-08T18:51:55.018Z,2.43
2018-07-08T18:54:23.178Z,7.43
2018-07-08T18:56:51.386Z,3.07
2018-07-08T18:59:19.602Z,2.87
2018-07-08T19:01:47.734Z,3.20
2018-07-08T19:04:16.057Z,3.27
2018-07-08T19:06:44.183Z,2.40
2018-07-08T19:09:12.355Z,2.23
2018-07-08T19:11:40.538Z,2.47
2018-07-08T19:14:09.145Z,2.87
2018-07-08T19:16:37.334Z,1.83
2018-07-08T19:19:05.555Z,1.90
2018-07-08T19:21:33.843Z,4.07
2018-07-08T19:24:02.030Z,2.87
2018-07-08T19:26:30.411Z,2.97
2018-07-08T19:28:58.576Z,2.87
2018-07-08T19:31:26.706Z,2.77
2018-07-08T19:33:54.861Z,2.20
2018-07-08T19:36:23.009Z,2.30
2018-07-08T19:38:51.161Z,2.67
2018-07-08T19:41:19.327Z,2.57
2018-07-08T19:43:47.470Z,4.03
2018-07-08T19:46:15.622Z,2.83
2018-07-08T19:48:43.768Z,2.30
2018-07-08T19:51:11.934Z,4.00
2018-07-08T19:53:40.450Z,2.90
2018-07-08T19:56:08.630Z,2.80
2018-07-08T19:58:36.926Z,2.07
2018-07-08T20:01:05.134Z,2.03
2018-07-08T20:03:33.402Z,2.50
2018-07-08T20:06:01.618Z,4.00
2018-07-08T20:08:29.966Z,3.30
2018-07-08T20:10:58.169Z,5.67
2018-07-08T20:13:26.358Z,2.43
2018-07-08T20:15:54.542Z,3.43
2018-07-08T20:18:22.824Z,2.93
2018-07-08T20:20:51.065Z,2.60
2018-07-08T20:23:19.221Z,2.30
2018-07-08T20:25:47.419Z,2.53
2018-07-08T20:28:15.391Z,2.60
2018-07-08T20:30:43.599Z,3.30
2018-07-08T20:33:11.813Z,3.73
2018-07-08T20:35:40.279Z,4.03
2018-07-08T20:38:08.495Z,2.60
2018-07-08T20:40:37.220Z,2.73
2018-07-08T20:43:05.662Z,3.70
2018-07-08T20:45:34.078Z,5.50
2018-07-08T20:48:02.373Z,2.93
2018-07-08T20:50:30.535Z,2.77
2018-07-08T20:52:58.784Z,2.73
2018-07-08T20:55:26.993Z,4.17
2018-07-08T20:57:55.218Z,2.87
2018-07-08T21:00:23.455Z,2.83
2018-07-08T21:02:51.687Z,3.97
2018-07-08T21:05:22.464Z,4.50
2018-07-08T21:07:50.942Z,5.77
2018-07-08T21:10:19.344Z,6.13
2018-07-08T21:12:47.630Z,3.13
2018-07-08T21:15:15.810Z,3.77
2018-07-08T21:17:44.062Z,2.77
2018-07-08T21:20:12.302Z,3.50
2018-07-08T21:22:40.510Z,2.83
2018-07-08T21:25:09.299Z,3.33
2018-07-08T21:27:37.702Z,4.73
2018-07-08T21:30:05.912Z,5.03
2018-07-08T21:32:34.154Z,2.97
2018-07-08T21:35:02.378Z,4.30
2018-07-08T21:37:30.578Z,7.33
2018-07-08T21:39:58.778Z,4.80
2018-07-08T21:42:27.075Z,4.07
2018-07-08T21:44:55.305Z,3.17
2018-07-08T21:47:23.491Z,4.23
2018-07-08T21:49:51.695Z,3.73
2018-07-08T21:52:19.914Z,5.57
2018-07-08T21:54:48.146Z,8.23
2018-07-08T21:57:16.417Z,3.80
2018-07-08T21:59:44.554Z,2.80
2018-07-08T22:02:18.729Z,4.00
2018-07-08T22:04:47.071Z,5.00
2018-07-08T22:07:22.422Z,3.10
2018-07-08T22:09:51.578Z,3.33
2018-07-08T22:12:19.794Z,7.90
2018-07-08T22:14:48.322Z,4.83
2018-07-08T22:17:16.535Z,5.30
2018-07-08T22:19:44.781Z,8.97
2018-07-08T22:22:13.074Z,4.33
2018-07-08T22:24:41.333Z,5.47
2018-07-08T22:27:09.546Z,4.97
2018-07-08T22:29:37.745Z,7.00
2018-07-08T22:32:06.222Z,6.13
2018-07-08T22:34:34.414Z,5.03
2018-07-08T22:37:02.613Z,4.10
2018-07-08T22:39:30.836Z,6.07
2018-07-08T22:41:59.055Z,4.57
2018-07-08T22:44:27.294Z,8.00
2018-07-08T22:46:55.482Z,6.73
2018-07-08T22:49:23.707Z,3.23
2018-07-08T22:51:51.898Z,4.03
2018-07-08T22:54:20.077Z,3.43
2018-07-08T22:56:48.254Z,3.77
2018-07-08T22:59:16.414Z,5.90
2018-07-08T23:01:56.112Z,4.50
2018-07-08T23:04:24.302Z,3.53
2018-07-08T23:06:52.449Z,5.77
2018-07-08T23:09:20.938Z,4.43
2018-07-08T23:11:49.130Z,3.63
2018-07-08T23:14:17.283Z,4.30
2018-07-08T23:16:45.449Z,5.03
2018-07-08T23:19:13.583Z,6.40
2018-07-08T23:21:41.727Z,8.10
2018-07-08T23:24:09.922Z,5.93
2018-07-08T23:26:38.086Z,4.97
2018-07-08T23:29:06.217Z,5.50
2018-07-08T23:31:34.370Z,7.33
2018-07-08T23:34:02.550Z,3.93
2018-07-08T23:36:30.768Z,5.13
2018-07-08T23:38:58.939Z,7.37
2018-07-08T23:41:27.067Z,6.97
2018-07-08T23:43:55.209Z,5.20
2018-07-08T23:46:23.349Z,4.43
2018-07-08T23:48:51.601Z,5.37
2018-07-08T23:51:19.743Z,6.73
2018-07-08T23:53:47.979Z,4.67
2018-07-08T23:56:16.246Z,3.93
2018-07-08T23:58:44.785Z,4.53
